Time;durP1;ratioP1;P1;durP2;ratioP2;P2;SDS_P1;SDS_P2;PMS_P1;PMS_P2;Temp;Humidity;BMP_temperature;BMP_pressure;BME280_temperature;BME280_humidity;BME280_pressure;Samples;Min_cycle;Max_cycle;Signal;HPM_P1;HPM_P2
2021/01/22 00:00:31;;;;;;;5.33;2.57;;;;;;;7.12;71.84;98403.91;6160921;28;20505;-61
2021/01/22 00:03:52;;;;;;;3.77;1.50;;;;;;;7.35;71.30;98402.25;6164123;28;20231;-60
2021/01/22 00:07:12;;;;;;;2.37;1.50;;;;;;;7.78;69.71;98393.00;6171600;28;20640;-62
2021/01/22 00:10:33;;;;;;;3.57;2.03;;;;;;;7.66;70.70;98378.75;6157790;28;20243;-61
2021/01/22 00:13:54;;;;;;;2.97;1.70;;;;;;;7.78;70.29;98348.94;6161609;28;20513;-62
2021/01/22 00:17:15;;;;;;;4.93;1.67;;;;;;;7.68;70.79;98349.28;6161111;28;20250;-62
2021/01/22 00:20:35;;;;;;;7.27;2.77;;;;;;;7.60;72.07;98338.34;6158222;28;20227;-61
2021/01/22 00:23:56;;;;;;;3.30;2.37;;;;;;;7.01;74.76;98336.97;6163291;28;20235;-61
2021/01/22 00:27:17;;;;;;;6.60;2.43;;;;;;;7.04;75.02;98312.75;6167076;28;20238;-61
2021/01/22 00:30:38;;;;;;;13.43;3.00;;;;;;;6.98;75.16;98315.50;6162736;28;20241;-61
2021/01/22 00:33:58;;;;;;;6.17;3.17;;;;;;;7.29;73.75;98310.97;6162503;28;20484;-59
2021/01/22 00:37:19;;;;;;;3.17;2.30;;;;;;;7.34;73.96;98299.59;6162909;28;20226;-60
2021/01/22 00:40:39;;;;;;;4.27;2.53;;;;;;;7.58;72.94;98253.81;6169705;28;20234;-61
2021/01/22 00:44:00;;;;;;;4.23;1.90;;;;;;;7.08;74.09;98319.50;6165978;28;20226;-62
2021/01/22 00:47:21;;;;;;;4.27;1.90;;;;;;;7.19;75.08;98267.34;6160269;28;20242;-61
2021/01/22 00:50:41;;;;;;;4.43;2.30;;;;;;;7.51;73.95;98261.00;6151641;28;20246;-61
2021/01/22 00:54:03;;;;;;;5.63;2.00;;;;;;;7.57;73.73;98257.31;6156427;28;20235;-61
2021/01/22 00:57:31;;;;;;;3.77;2.03;;;;;;;7.38;74.63;98247.63;6159089;28;20408;-60
2021/01/22 01:00:52;;;;;;;4.27;2.23;;;;;;;7.33;74.67;98240.94;6148722;28;20242;-60
2021/01/22 01:04:25;;;;;;;4.17;2.13;;;;;;;7.04;76.36;98241.13;6159724;28;20481;-61
2021/01/22 01:08:00;;;;;;;6.00;2.40;;;;;;;7.59;75.53;98217.50;6151241;28;20226;-61
2021/01/22 01:11:42;;;;;;;3.97;2.00;;;;;;;7.35;76.10;98190.81;6164515;28;20230;-62
2021/01/22 01:15:09;;;;;;;4.20;2.23;;;;;;;7.46;75.87;98174.84;6153933;28;20235;-61
2021/01/22 01:18:34;;;;;;;2.27;2.00;;;;;;;7.65;75.87;98209.50;6151448;28;20231;-61
2021/01/22 01:21:55;;;;;;;2.63;1.90;;;;;;;7.60;76.95;98198.50;6166979;28;20223;-61
2021/01/22 01:25:16;;;;;;;4.17;1.97;;;;;;;7.89;75.60;98184.38;6163676;28;20269;-62
2021/01/22 01:28:36;;;;;;;2.73;2.07;;;;;;;8.21;74.74;98178.78;6164085;28;20235;-61
2021/01/22 01:31:57;;;;;;;2.93;1.63;;;;;;;8.38;74.20;98150.41;6163610;28;20233;-60
2021/01/22 01:35:17;;;;;;;2.83;2.03;;;;;;;8.27;74.74;98183.72;6165632;28;20230;-60
2021/01/22 01:38:38;;;;;;;1.63;1.53;;;;;;;8.78;73.25;98182.44;6163349;28;20243;-61
2021/01/22 01:41:59;;;;;;;2.40;1.17;;;;;;;8.76;73.52;98160.91;6161104;28;20406;-61
2021/01/22 01:45:20;;;;;;;1.40;1.30;;;;;;;8.98;72.77;98172.94;6155236;28;20219;-61
2021/01/22 01:48:40;;;;;;;1.60;1.50;;;;;;;9.17;72.32;98154.75;6156184;28;20647;-60
2021/01/22 01:52:01;;;;;;;1.30;1.20;;;;;;;9.19;71.43;98140.81;6155306;28;20242;-61
2021/01/22 01:55:23;;;;;;;2.23;1.50;;;;;;;9.15;72.07;98147.06;6156051;28;20229;-60
2021/01/22 01:58:43;;;;;;;2.10;1.60;;;;;;;9.19;71.71;98147.72;6163924;28;20242;-61
2021/01/22 02:02:04;;;;;;;2.07;1.30;;;;;;;9.42;70.78;98134.53;6161012;28;20664;-61
2021/01/22 02:05:24;;;;;;;1.87;1.70;;;;;;;9.62;70.71;98135.34;6155536;28;20235;-60
2021/01/22 02:08:45;;;;;;;5.33;1.90;;;;;;;9.69;70.07;98128.09;6161923;28;20693;-61
2021/01/22 02:12:07;;;;;;;3.20;1.90;;;;;;;9.87;69.62;98114.22;6172376;28;20348;-61
2021/01/22 02:15:29;;;;;;;2.27;2.07;;;;;;;9.54;70.83;98111.47;6164899;28;20569;-61
2021/01/22 02:18:53;;;;;;;2.73;1.80;;;;;;;9.63;70.14;98109.31;6156680;28;20609;-62
2021/01/22 02:22:14;;;;;;;2.60;1.77;;;;;;;9.61;70.83;98097.28;6159999;28;20233;-61
2021/01/22 02:25:38;;;;;;;2.60;1.57;;;;;;;9.88;69.21;98102.88;6161207;28;20230;-60
2021/01/22 02:29:02;;;;;;;2.03;1.67;;;;;;;9.83;69.86;98099.69;6156251;28;20227;-60
2021/01/22 02:32:24;;;;;;;2.13;1.93;;;;;;;9.94;69.14;98105.19;6160137;28;20230;-60
2021/01/22 02:35:48;;;;;;;4.90;1.93;;;;;;;9.95;68.97;98087.84;6165742;28;20238;-61
2021/01/22 02:39:12;;;;;;;1.47;1.30;;;;;;;9.53;71.17;98082.06;6163094;28;20238;-60
2021/01/22 02:42:33;;;;;;;1.40;1.20;;;;;;;9.98;69.13;98067.72;6168858;28;20258;-61
2021/01/22 02:45:56;;;;;;;2.77;1.60;;;;;;;9.99;69.08;98074.59;6161196;28;20328;-61
2021/01/22 02:49:16;;;;;;;1.20;0.90;;;;;;;9.81;69.94;98063.38;6163248;28;20311;-61
2021/01/22 02:52:36;;;;;;;2.13;1.20;;;;;;;9.68;70.59;98053.66;6161372;28;20349;-60
2021/01/22 02:55:57;;;;;;;2.70;1.27;;;;;;;9.68;70.77;98048.47;6164653;28;20850;-60
2021/01/22 02:59:41;;;;;;;1.10;1.10;;;;;;;9.86;69.99;98050.13;6173552;28;20263;-60
2021/01/22 03:03:09;;;;;;;3.80;1.20;;;;;;;9.96;69.63;98030.53;6161424;28;20239;-61
2021/01/22 03:06:33;;;;;;;1.20;1.00;;;;;;;9.81;69.97;98026.16;6156506;28;20249;-61
2021/01/22 03:09:58;;;;;;;1.40;1.00;;;;;;;9.99;69.62;98020.00;6166697;28;20519;-61
2021/01/22 03:13:19;;;;;;;1.07;0.93;;;;;;;9.91;69.83;98016.97;6162006;28;20246;-59
2021/01/22 03:16:40;;;;;;;1.03;0.90;;;;;;;10.11;69.33;98007.28;6169636;28;20247;-60
2021/01/22 03:20:02;;;;;;;1.03;0.87;;;;;;;10.24;68.56;97996.16;6162693;28;20583;-60
2021/01/22 03:23:23;;;;;;;1.03;0.97;;;;;;;10.09;69.35;98003.94;6171516;28;20324;-61
2021/01/22 03:26:43;;;;;;;1.43;0.90;;;;;;;9.99;69.42;97996.59;6157779;28;20235;-61
2021/01/22 03:30:04;;;;;;;1.30;0.97;;;;;;;10.27;68.52;98002.97;6165790;28;20234;-60
2021/01/22 03:33:25;;;;;;;1.87;1.00;;;;;;;10.50;67.69;97982.72;6161901;28;20238;-60
2021/01/22 03:36:46;;;;;;;2.50;0.87;;;;;;;10.36;68.24;97994.72;6163796;28;20318;-60
2021/01/22 03:40:08;;;;;;;1.10;0.90;;;;;;;10.44;67.55;97989.94;6166504;28;20233;-61
2021/01/22 03:43:28;;;;;;;1.00;0.80;;;;;;;10.45;67.90;97969.97;6170543;28;20230;-61
2021/01/22 03:46:49;;;;;;;1.73;1.30;;;;;;;10.17;68.91;97976.59;6162789;28;20230;-62
2021/01/22 03:50:10;;;;;;;1.63;0.90;;;;;;;10.56;67.80;97966.78;6162017;28;20694;-60
2021/01/22 03:53:31;;;;;;;1.50;1.00;;;;;;;10.33;68.48;97970.63;6171344;28;20234;-60
2021/01/22 03:56:52;;;;;;;2.17;1.07;;;;;;;10.33;68.67;97955.88;6157260;28;20242;-61
2021/01/22 04:00:13;;;;;;;1.13;1.03;;;;;;;10.21;69.81;97977.28;6162308;28;20320;-61
2021/01/22 04:03:34;;;;;;;1.20;1.10;;;;;;;10.04;72.39;97972.94;6166000;28;20251;-61
2021/01/22 04:06:54;;;;;;;1.53;0.93;;;;;;;9.72;71.79;97961.63;6159948;28;20302;-59
2021/01/22 04:10:15;;;;;;;0.83;0.80;;;;;;;10.04;71.23;97952.16;6164554;28;20230;-59
2021/01/22 04:13:36;;;;;;;2.30;1.13;;;;;;;9.73;71.43;97956.38;6159515;28;20537;-60
2021/01/22 04:16:57;;;;;;;1.73;1.03;;;;;;;10.07;71.06;97956.38;6162841;28;20230;-61
2021/01/22 04:20:21;;;;;;;1.97;1.13;;;;;;;9.74;72.29;97972.78;6163897;28;20237;-60
2021/01/22 04:23:42;;;;;;;1.27;1.07;;;;;;;9.66;73.21;97971.41;6163192;28;20624;-60
2021/01/22 04:27:04;;;;;;;4.10;1.97;;;;;;;9.41;76.17;97987.38;6161118;28;20250;-61
2021/01/22 04:30:24;;;;;;;8.93;2.13;;;;;;;9.21;78.52;98073.22;6155922;28;20235;-63
2021/01/22 04:33:45;;;;;;;0.40;0.40;;;;;;;7.86;77.03;98098.16;6161539;28;20657;-63
2021/01/22 04:37:05;;;;;;;1.53;0.60;;;;;;;7.38;77.81;98106.97;6162879;28;20223;-63
2021/01/22 04:40:27;;;;;;;0.43;0.40;;;;;;;7.48;78.67;98121.25;6151490;28;20326;-63
2021/01/22 04:43:48;;;;;;;0.80;0.80;;;;;;;7.08;79.12;98135.75;6166075;28;20230;-63
2021/01/22 04:47:08;;;;;;;0.30;0.30;;;;;;;6.65;77.88;98170.91;6151663;28;20238;-63
2021/01/22 04:50:29;;;;;;;0.83;0.67;;;;;;;6.82;78.87;98198.78;6152614;28;20246;-62
2021/01/22 04:53:55;;;;;;;1.40;1.30;;;;;;;6.84;77.05;98222.84;6149206;28;20239;-63
2021/01/22 04:57:16;;;;;;;1.97;1.87;;;;;;;6.86;76.17;98240.03;6148175;28;20516;-63
2021/01/22 05:00:38;;;;;;;1.87;1.77;;;;;;;6.57;76.20;98255.69;6154895;28;20329;-63
2021/01/22 05:03:58;;;;;;;2.23;2.00;;;;;;;6.50;75.63;98253.31;6146027;28;20231;-63
2021/01/22 05:07:21;;;;;;;1.80;1.70;;;;;;;6.40;76.08;98249.34;6153374;28;20235;-62
2021/01/22 05:10:42;;;;;;;2.57;2.20;;;;;;;6.24;75.81;98274.00;6158375;28;20231;-62
2021/01/22 05:14:03;;;;;;;2.53;2.20;;;;;;;5.93;77.16;98298.16;6154032;28;20323;-62
2021/01/22 05:17:24;;;;;;;1.37;1.27;;;;;;;5.64;77.29;98305.06;6155045;28;20620;-62
2021/01/22 05:20:45;;;;;;;1.30;1.20;;;;;;;5.55;76.99;98325.16;6153104;28;20545;-61
2021/01/22 05:24:19;;;;;;;1.57;1.47;;;;;;;5.31;75.48;98348.13;6157884;28;20353;-63
2021/01/22 05:27:48;;;;;;;1.03;1.03;;;;;;;5.24;76.93;98357.78;6169433;28;20221;-63
2021/01/22 05:31:10;;;;;;;1.10;1.10;;;;;;;5.43;75.51;98398.56;6159064;28;20284;-62
2021/01/22 05:34:47;;;;;;;0.70;0.70;;;;;;;5.04;75.52;98385.84;6155846;28;20242;-62
2021/01/22 05:38:07;;;;;;;0.63;0.63;;;;;;;4.67;76.61;98405.66;6153615;28;20239;-62
2021/01/22 05:41:28;;;;;;;0.80;0.80;;;;;;;5.02;76.74;98401.38;6157614;28;20234;-62
2021/01/22 05:44:53;;;;;;;1.03;1.00;;;;;;;4.41;76.53;98418.28;6152476;28;20235;-62
2021/01/22 05:48:21;;;;;;;1.03;1.03;;;;;;;4.47;76.13;98446.50;6158719;28;20231;-62
2021/01/22 05:51:42;;;;;;;1.33;1.30;;;;;;;4.29;75.31;98458.91;6166473;28;20232;-62
2021/01/22 05:55:19;;;;;;;1.47;1.37;;;;;;;4.34;76.37;98471.69;6152693;28;20557;-62
2021/01/22 05:58:41;;;;;;;2.73;1.80;;;;;;;4.17;75.59;98458.31;6151071;28;20567;-62
2021/01/22 06:02:26;;;;;;;2.73;2.13;;;;;;;4.11;76.66;98491.06;6156751;28;20234;-62
2021/01/22 06:05:53;;;;;;;3.00;2.80;;;;;;;4.30;75.83;98490.66;6153416;28;20643;-62
2021/01/22 06:09:30;;;;;;;2.90;2.70;;;;;;;4.36;75.70;98489.69;6146298;28;20234;-62
2021/01/22 06:12:52;;;;;;;3.30;2.50;;;;;;;4.02;75.90;98480.94;6148160;28;20234;-61
2021/01/22 06:16:15;;;;;;;3.07;2.87;;;;;;;4.11;76.74;98491.06;6159089;28;20242;-62
2021/01/22 06:19:39;;;;;;;3.47;3.17;;;;;;;4.27;76.47;98501.06;6156491;28;20258;-62
2021/01/22 06:23:06;;;;;;;2.93;2.63;;;;;;;4.26;76.28;98509.66;6156421;28;20230;-62
2021/01/22 06:26:30;;;;;;;3.13;2.83;;;;;;;4.26;75.82;98519.94;6153807;28;20615;-62
2021/01/22 06:29:51;;;;;;;3.17;2.97;;;;;;;4.49;75.46;98532.38;6158440;28;20294;-61
2021/01/22 06:33:12;;;;;;;3.40;3.10;;;;;;;4.53;75.15;98542.56;6158816;28;20321;-62
2021/01/22 06:36:32;;;;;;;3.23;2.93;;;;;;;4.07;76.30;98556.41;6160308;28;20223;-61
2021/01/22 06:39:55;;;;;;;3.23;2.93;;;;;;;4.56;75.20;98564.03;6170166;28;20648;-61
2021/01/22 06:43:17;;;;;;;2.90;2.70;;;;;;;4.35;75.05;98566.16;6151809;28;20233;-62
2021/01/22 06:46:37;;;;;;;3.43;3.13;;;;;;;4.32;75.14;98561.06;6156140;28;20230;-62
2021/01/22 06:49:58;;;;;;;3.67;3.37;;;;;;;4.27;75.03;98570.63;6158270;28;20254;-61
2021/01/22 06:53:18;;;;;;;4.13;3.77;;;;;;;4.23;75.64;98566.41;6163612;28;20230;-62
2021/01/22 06:57:11;;;;;;;3.50;3.20;;;;;;;4.46;74.36;98571.94;6164267;28;20234;-61
2021/01/22 07:00:39;;;;;;;3.87;3.47;;;;;;;4.33;74.95;98584.22;6153468;28;20239;-61
2021/01/22 07:03:59;;;;;;;3.87;3.33;;;;;;;4.53;74.16;98593.28;6159329;28;20235;-61
2021/01/22 07:07:47;;;;;;;3.43;3.13;;;;;;;4.47;74.68;98607.16;6159342;28;20285;-61
2021/01/22 07:11:07;;;;;;;3.70;3.40;;;;;;;4.37;74.86;98626.25;6167564;28;20617;-61
2021/01/22 07:14:36;;;;;;;4.53;3.47;;;;;;;4.36;74.90;98621.13;6160817;28;20238;-62
2021/01/22 07:17:59;;;;;;;4.07;3.73;;;;;;;4.08;75.60;98643.09;6156565;28;20242;-61
2021/01/22 07:21:29;;;;;;;6.37;5.77;;;;;;;4.33;74.38;98637.50;6180410;28;20234;-61
2021/01/22 07:24:55;;;;;;;6.27;5.30;;;;;;;4.35;74.46;98651.19;6170476;28;20582;-60
2021/01/22 07:28:22;;;;;;;5.70;5.20;;;;;;;4.41;74.04;98637.34;6157928;28;20242;-61
2021/01/22 07:31:50;;;;;;;8.10;5.93;;;;;;;4.36;74.13;98654.63;6168524;28;20219;-61
2021/01/22 07:35:20;;;;;;;6.90;6.30;;;;;;;4.44;74.18;98658.75;6160037;28;20252;-61
2021/01/22 07:38:42;;;;;;;9.23;6.33;;;;;;;4.48;74.08;98660.41;6164065;28;20601;-62
2021/01/22 07:42:05;;;;;;;9.03;8.13;;;;;;;4.69;73.74;98672.03;6161597;28;20266;-61
2021/01/22 07:45:25;;;;;;;8.97;7.10;;;;;;;4.69;74.14;98681.47;6149491;28;21084;-61
2021/01/22 07:48:48;;;;;;;9.83;8.83;;;;;;;4.43;73.63;98685.41;6165070;28;20243;-62
2021/01/22 07:52:10;;;;;;;8.63;7.67;;;;;;;4.61;72.57;98685.94;6158899;28;20523;-61
2021/01/22 07:55:30;;;;;;;8.23;7.43;;;;;;;4.71;73.00;98692.63;6152852;28;20231;-62
2021/01/22 07:58:51;;;;;;;8.57;7.53;;;;;;;4.70;73.04;98702.09;6156099;28;20235;-62
2021/01/22 08:02:12;;;;;;;8.47;7.57;;;;;;;4.47;72.81;98715.41;6158861;28;20227;-61
2021/01/22 08:05:34;;;;;;;8.30;7.50;;;;;;;4.86;72.36;98699.22;6155534;28;20238;-62
2021/01/22 08:09:05;;;;;;;11.10;8.23;;;;;;;4.65;72.38;98708.22;6150363;28;20513;-61
2021/01/22 08:12:26;;;;;;;13.17;8.80;;;;;;;4.49;72.67;98723.94;6149642;28;20234;-62
2021/01/22 08:16:02;;;;;;;9.33;7.27;;;;;;;4.91;72.19;98721.47;6146168;28;20247;-62
2021/01/22 08:19:24;;;;;;;9.63;8.67;;;;;;;4.63;72.41;98710.81;6150300;28;20235;-62
2021/01/22 08:22:51;;;;;;;9.40;8.60;;;;;;;5.10;71.67;98721.13;6151351;28;20243;-62
2021/01/22 08:26:13;;;;;;;11.57;8.40;;;;;;;5.54;69.93;98711.56;6152322;28;20235;-63
2021/01/22 08:29:35;;;;;;;9.43;8.53;;;;;;;4.97;70.42;98717.06;6150438;28;20239;-64
2021/01/22 08:32:57;;;;;;;8.13;7.33;;;;;;;4.67;71.74;98702.16;6152745;28;20531;-64
2021/01/22 08:36:20;;;;;;;9.67;8.60;;;;;;;5.10;71.03;98710.78;6153921;28;20504;-64
2021/01/22 08:39:55;;;;;;;10.50;8.27;;;;;;;4.99;71.36;98725.63;6155070;28;20576;-64
2021/01/22 08:43:17;;;;;;;9.83;8.80;;;;;;;4.74;71.83;98724.34;6154435;28;20623;-63
2021/01/22 08:46:46;;;;;;;11.07;8.60;;;;;;;4.95;71.14;98732.56;6159655;28;20239;-63
2021/01/22 08:50:08;;;;;;;8.13;7.43;;;;;;;5.20;70.57;98739.84;6163567;28;20242;-64
2021/01/22 08:53:28;;;;;;;10.80;9.00;;;;;;;5.01;71.31;98747.09;6166803;28;20263;-64
2021/01/22 08:57:03;;;;;;;12.80;11.47;;;;;;;4.85;71.35;98762.00;6158538;28;20266;-63
2021/01/22 09:00:26;;;;;;;9.10;8.07;;;;;;;5.21;70.89;98757.84;6152125;28;20546;-64
2021/01/22 09:03:46;;;;;;;9.30;8.40;;;;;;;5.19;70.44;98767.34;6162331;28;20237;-64
2021/01/22 09:07:17;;;;;;;9.67;8.70;;;;;;;4.81;71.60;98774.09;6153079;28;20238;-63
2021/01/22 09:10:41;;;;;;;9.27;8.37;;;;;;;5.31;70.55;98782.59;6157915;28;20234;-64
2021/01/22 09:14:02;;;;;;;11.53;8.17;;;;;;;5.00;71.40;98808.16;6153414;28;20234;-64
2021/01/22 09:17:24;;;;;;;9.77;8.03;;;;;;;5.15;70.83;98790.69;6162974;28;20506;-64
2021/01/22 09:20:56;;;;;;;8.80;8.00;;;;;;;5.18;70.78;98795.78;6159502;28;20609;-64
2021/01/22 09:24:16;;;;;;;8.97;8.10;;;;;;;5.35;70.43;98795.44;6164122;28;20341;-65
2021/01/22 09:27:37;;;;;;;13.10;8.40;;;;;;;5.51;70.05;98800.25;6154920;28;20621;-64
2021/01/22 09:30:58;;;;;;;11.50;9.23;;;;;;;5.44;69.42;98808.16;6165251;28;20242;-64
2021/01/22 09:34:19;;;;;;;12.53;9.10;;;;;;;5.67;69.52;98794.78;6161887;28;20234;-62
2021/01/22 09:37:39;;;;;;;10.77;8.57;;;;;;;5.37;70.29;98797.13;6173621;28;20271;-62
2021/01/22 09:41:01;;;;;;;8.80;7.90;;;;;;;5.36;69.84;98807.47;6160967;28;20246;-63
2021/01/22 09:44:21;;;;;;;7.97;7.27;;;;;;;5.71;68.58;98796.41;6165962;28;20234;-62
2021/01/22 09:47:42;;;;;;;11.20;9.00;;;;;;;5.57;68.63;98804.44;6166526;28;20605;-62
2021/01/22 09:51:03;;;;;;;10.40;9.40;;;;;;;5.53;67.70;98811.41;6159713;28;20246;-63
2021/01/22 09:54:24;;;;;;;8.13;7.17;;;;;;;5.75;66.53;98820.44;6164201;28;20314;-62
2021/01/22 09:57:45;;;;;;;10.13;8.27;;;;;;;5.83;66.74;98813.38;6167039;28;20333;-64
2021/01/22 10:01:05;;;;;;;9.60;8.67;;;;;;;5.67;66.63;98821.44;6161581;28;20234;-62
2021/01/22 10:04:25;;;;;;;9.67;7.70;;;;;;;6.20;64.75;98830.66;6155105;28;20242;-61
2021/01/22 10:07:47;;;;;;;9.77;8.87;;;;;;;5.97;65.44;98829.47;6151290;28;20243;-62
2021/01/22 10:11:07;;;;;;;15.37;10.07;;;;;;;6.20;65.76;98838.41;6166089;28;20234;-61
2021/01/22 10:14:27;;;;;;;7.70;7.10;;;;;;;6.15;64.52;98843.72;6152146;28;20321;-62
2021/01/22 10:17:48;;;;;;;9.47;8.37;;;;;;;6.36;64.74;98857.88;6166416;28;20238;-61
2021/01/22 10:21:08;;;;;;;12.17;8.67;;;;;;;6.16;65.94;98855.72;6167112;28;20235;-61
2021/01/22 10:24:29;;;;;;;12.47;9.07;;;;;;;5.91;66.31;98868.31;6167575;28;20235;-60
2021/01/22 10:27:50;;;;;;;15.03;8.93;;;;;;;6.05;65.76;98878.41;6163359;28;20234;-61
2021/01/22 10:31:10;;;;;;;11.53;8.47;;;;;;;6.06;66.62;98878.34;6165393;28;20246;-61
2021/01/22 10:34:31;;;;;;;9.70;8.67;;;;;;;5.75;67.18;98879.84;6158200;28;20242;-61
2021/01/22 10:37:52;;;;;;;9.33;8.63;;;;;;;5.85;66.59;98882.19;6165805;28;20252;-62
2021/01/22 10:41:13;;;;;;;9.83;8.90;;;;;;;5.72;67.28;98888.53;6164728;28;20242;-62
2021/01/22 10:44:33;;;;;;;11.97;8.47;;;;;;;5.72;66.72;98897.13;6164232;28;20226;-61
2021/01/22 10:47:54;;;;;;;10.37;8.80;;;;;;;5.97;66.43;98888.03;6166065;28;20234;-61
2021/01/22 10:51:15;;;;;;;11.90;7.77;;;;;;;5.88;66.78;98881.31;6160297;28;20512;-60
2021/01/22 10:54:35;;;;;;;9.30;8.40;;;;;;;5.77;66.44;98897.00;6171478;28;20520;-60
2021/01/22 10:57:56;;;;;;;9.93;8.80;;;;;;;6.11;65.51;98894.63;6164327;28;20641;-61
2021/01/22 11:01:16;;;;;;;8.70;7.20;;;;;;;6.53;64.16;98905.75;6178093;28;20234;-61
2021/01/22 11:04:39;;;;;;;8.80;7.93;;;;;;;6.37;64.56;98910.44;6170640;28;20238;-61
2021/01/22 11:08:00;;;;;;;8.73;7.80;;;;;;;5.99;65.33;98904.34;6167348;28;20557;-61
2021/01/22 11:11:20;;;;;;;9.63;7.20;;;;;;;6.06;65.15;98911.09;6165564;28;20234;-61
2021/01/22 11:14:45;;;;;;;9.57;7.50;;;;;;;6.45;63.39;98911.94;6160383;28;20231;-62
2021/01/22 11:18:05;;;;;;;8.67;7.60;;;;;;;6.29;64.51;98913.19;6169149;28;20239;-64
2021/01/22 11:21:26;;;;;;;9.77;7.40;;;;;;;6.63;63.51;98912.41;6166947;28;20234;-66
2021/01/22 11:24:46;;;;;;;10.17;6.43;;;;;;;6.43;62.96;98913.72;6168410;28;20266;-62
2021/01/22 11:28:06;;;;;;;8.87;7.30;;;;;;;6.61;63.03;98914.19;6166170;28;20238;-61
2021/01/22 11:31:28;;;;;;;10.93;6.87;;;;;;;6.87;61.64;98917.00;6154514;28;20772;-63
2021/01/22 11:34:49;;;;;;;12.20;5.63;;;;;;;6.69;62.18;98920.06;6162197;28;20239;-62
2021/01/22 11:38:12;;;;;;;9.03;6.73;;;;;;;6.76;61.94;98926.75;6152387;28;20230;-63
2021/01/22 11:41:32;;;;;;;8.13;6.23;;;;;;;6.63;62.44;98921.03;6168189;28;20642;-64
2021/01/22 11:44:53;;;;;;;6.07;5.43;;;;;;;6.86;61.31;98937.75;6168781;28;20274;-62
2021/01/22 11:48:14;;;;;;;7.90;5.97;;;;;;;6.93;61.14;98946.22;6161706;28;20538;-63
2021/01/22 11:51:34;;;;;;;9.70;5.53;;;;;;;6.48;62.09;98940.34;6164355;28;20390;-62
2021/01/22 11:54:55;;;;;;;7.40;5.63;;;;;;;6.70;61.43;98950.19;6168988;28;20231;-62
2021/01/22 11:58:15;;;;;;;9.90;5.77;;;;;;;6.34;62.74;98946.69;6152471;28;20322;-63
2021/01/22 12:01:36;;;;;;;8.83;5.73;;;;;;;6.53;61.60;98967.81;6159380;28;20550;-63
2021/01/22 12:04:57;;;;;;;8.77;5.03;;;;;;;6.50;61.81;98954.09;6169343;28;20242;-62
2021/01/22 12:08:17;;;;;;;9.20;5.97;;;;;;;6.38;61.28;98974.19;6169831;28;20327;-63
2021/01/22 12:11:37;;;;;;;11.23;5.70;;;;;;;6.73;61.51;98970.84;6151787;28;20235;-62
2021/01/22 12:14:58;;;;;;;9.13;6.60;;;;;;;6.65;61.32;98962.38;6168923;28;20246;-62
2021/01/22 12:18:18;;;;;;;6.07;5.43;;;;;;;6.81;60.43;98960.31;6162949;28;20226;-61
2021/01/22 12:21:39;;;;;;;8.37;5.40;;;;;;;6.34;61.96;98955.31;6165305;28;20230;-62
2021/01/22 12:25:00;;;;;;;6.00;5.50;;;;;;;6.84;60.09;98963.69;6153950;28;20235;-63
2021/01/22 12:28:20;;;;;;;8.67;4.93;;;;;;;6.75;59.94;98947.53;6161536;28;20635;-62
2021/01/22 12:31:40;;;;;;;8.40;5.53;;;;;;;6.77;58.76;98972.47;6159012;28;20869;-62
2021/01/22 12:35:01;;;;;;;7.93;5.67;;;;;;;6.75;59.71;98960.47;6166312;28;20231;-63
2021/01/22 12:38:22;;;;;;;5.70;5.20;;;;;;;6.63;59.64;98954.66;6165063;28;20222;-63
2021/01/22 12:41:42;;;;;;;10.57;5.70;;;;;;;6.93;59.45;98961.75;6167239;28;20234;-63
2021/01/22 12:45:03;;;;;;;7.03;5.40;;;;;;;6.77;58.53;98966.44;6152779;28;20354;-63
2021/01/22 12:48:24;;;;;;;10.10;6.07;;;;;;;6.54;59.30;98974.72;6165656;28;20222;-63
2021/01/22 12:51:44;;;;;;;6.93;5.50;;;;;;;6.71;58.54;98972.59;6151804;28;20511;-63
2021/01/22 12:55:06;;;;;;;12.27;6.57;;;;;;;7.27;57.21;98961.78;6164617;28;20257;-63
2021/01/22 12:58:27;;;;;;;9.33;6.47;;;;;;;6.99;57.80;98971.94;6150454;28;20258;-63
2021/01/22 13:01:47;;;;;;;10.40;5.33;;;;;;;7.64;56.65;98972.03;6158511;28;20605;-63
2021/01/22 13:05:08;;;;;;;7.13;4.80;;;;;;;7.19;56.85;98974.94;6160778;28;20238;-63
2021/01/22 13:08:29;;;;;;;8.50;5.47;;;;;;;7.04;56.63;98985.66;6154674;28;20700;-64
2021/01/22 13:11:50;;;;;;;8.50;5.70;;;;;;;7.01;57.17;98983.13;6158289;28;20234;-63
2021/01/22 13:15:12;;;;;;;11.87;6.43;;;;;;;7.05;57.41;98985.59;6158517;28;20238;-62
2021/01/22 13:18:32;;;;;;;11.33;5.30;;;;;;;7.19;56.99;98993.03;6162621;28;20235;-63
2021/01/22 13:21:52;;;;;;;12.53;8.33;;;;;;;7.59;55.63;98992.03;6158691;28;20632;-63
2021/01/22 13:25:13;;;;;;;7.93;6.00;;;;;;;7.41;55.61;99001.13;6169906;28;20234;-63
2021/01/22 13:28:35;;;;;;;6.57;5.00;;;;;;;7.19;56.49;98995.63;6162405;28;20287;-63
2021/01/22 13:31:55;;;;;;;10.80;6.13;;;;;;;7.58;55.52;99000.69;6152986;28;20321;-62
2021/01/22 13:35:15;;;;;;;8.53;6.17;;;;;;;7.32;56.04;98997.91;6166730;28;20257;-62
2021/01/22 13:38:36;;;;;;;11.70;6.00;;;;;;;7.16;56.63;99021.59;6148189;28;20231;-63
2021/01/22 13:41:56;;;;;;;7.87;6.57;;;;;;;7.24;56.45;99009.28;6153610;28;20243;-63
2021/01/22 13:45:17;;;;;;;8.63;5.47;;;;;;;7.77;54.88;99023.53;6150135;28;20226;-62
2021/01/22 13:48:38;;;;;;;8.13;6.77;;;;;;;7.39;55.43;99017.59;6160355;28;20636;-62
2021/01/22 13:51:58;;;;;;;10.83;5.43;;;;;;;7.62;54.91;99032.56;6168180;28;20238;-62
2021/01/22 13:55:19;;;;;;;8.93;6.63;;;;;;;6.92;56.87;99032.50;6158243;28;20604;-62
2021/01/22 13:58:39;;;;;;;8.73;7.00;;;;;;;6.71;57.43;99060.56;6164679;28;20261;-61
2021/01/22 14:02:01;;;;;;;11.83;7.17;;;;;;;7.08;57.50;99045.06;6166099;28;20270;-62
2021/01/22 14:05:21;;;;;;;7.33;6.43;;;;;;;7.39;58.33;99054.69;6159057;28;20242;-63
2021/01/22 14:08:41;;;;;;;8.80;6.60;;;;;;;7.09;56.67;99045.91;6157342;28;20262;-60
2021/01/22 14:12:02;;;;;;;10.30;6.97;;;;;;;7.20;56.79;99054.28;6165523;28;20234;-61
2021/01/22 14:15:22;;;;;;;7.03;6.13;;;;;;;6.91;57.65;99057.53;6157678;28;20462;-63
2021/01/22 14:18:43;;;;;;;13.00;6.37;;;;;;;6.71;57.72;99057.97;6162356;28;20234;-62
2021/01/22 14:22:04;;;;;;;9.67;6.57;;;;;;;6.80;57.54;99075.03;6164198;28;20253;-61
2021/01/22 14:25:29;;;;;;;9.10;7.43;;;;;;;6.70;57.99;99077.78;6163481;28;20278;-60
2021/01/22 14:28:50;;;;;;;7.33;6.73;;;;;;;7.00;57.42;99083.22;6163065;28;20316;-60
2021/01/22 14:32:11;;;;;;;13.40;7.03;;;;;;;7.08;57.23;99090.81;6169841;28;20623;-58
2021/01/22 14:35:32;;;;;;;9.93;7.23;;;;;;;6.89;57.58;99101.56;6169706;28;20230;-60
2021/01/22 14:38:52;;;;;;;7.23;6.00;;;;;;;6.78;57.97;99100.06;6148088;29;20239;-59
2021/01/22 14:42:13;;;;;;;13.07;7.57;;;;;;;7.19;56.98;99093.16;6166487;28;20532;-56
2021/01/22 14:45:33;;;;;;;9.97;6.30;;;;;;;6.63;58.35;99109.00;6166395;28;20386;-59
2021/01/22 14:48:53;;;;;;;9.77;8.03;;;;;;;7.16;56.78;99090.66;6167098;28;20230;-56
2021/01/22 14:52:15;;;;;;;11.20;6.07;;;;;;;6.78;57.96;99108.69;6163158;28;20309;-59
2021/01/22 14:55:35;;;;;;;7.63;6.13;;;;;;;6.87;58.28;99112.84;6164777;28;20241;-60
2021/01/22 14:58:55;;;;;;;8.50;6.70;;;;;;;6.52;58.81;99117.00;6150154;28;20239;-60
2021/01/22 15:02:16;;;;;;;12.10;6.67;;;;;;;6.85;57.87;99110.28;6179149;28;20528;-58
2021/01/22 15:05:36;;;;;;;8.83;6.40;;;;;;;6.38;58.93;99124.13;6168095;28;20234;-60
2021/01/22 15:08:58;;;;;;;7.97;6.23;;;;;;;6.80;57.52;99122.44;6159942;28;20620;-59
2021/01/22 15:12:18;;;;;;;14.20;6.53;;;;;;;6.36;58.70;99134.53;6169125;28;20230;-59
2021/01/22 15:15:39;;;;;;;13.90;7.43;;;;;;;6.43;58.68;99138.69;6167548;28;20596;-60
2021/01/22 15:18:59;;;;;;;10.90;7.13;;;;;;;6.83;58.15;99131.91;6164365;28;20544;-60
2021/01/22 15:22:20;;;;;;;12.73;6.07;;;;;;;6.43;59.34;99138.69;6157216;28;20563;-59
2021/01/22 15:25:41;;;;;;;8.50;6.87;;;;;;;6.58;58.69;99141.88;6164477;28;20433;-59
2021/01/22 15:29:01;;;;;;;10.27;6.50;;;;;;;6.74;58.31;99148.44;6166329;28;20239;-59
2021/01/22 15:32:21;;;;;;;7.67;6.40;;;;;;;6.43;58.98;99155.94;6168974;28;20487;-59
2021/01/22 15:35:43;;;;;;;14.00;7.30;;;;;;;6.22;59.57;99163.22;6164971;28;20234;-58
2021/01/22 15:39:04;;;;;;;14.77;7.20;;;;;;;6.57;58.78;99166.91;6147078;29;20231;-59
2021/01/22 15:42:25;;;;;;;6.53;5.77;;;;;;;6.73;58.24;99162.28;6169935;28;20624;-60
2021/01/22 15:45:46;;;;;;;11.13;6.20;;;;;;;6.28;59.42;99168.28;6159657;28;20249;-58
2021/01/22 15:49:06;;;;;;;8.73;5.30;;;;;;;6.40;58.67;99174.13;6165499;28;20242;-59
2021/01/22 15:52:26;;;;;;;9.67;6.07;;;;;;;6.17;59.32;99184.88;6155551;28;20242;-59
2021/01/22 15:55:47;;;;;;;11.43;5.97;;;;;;;6.47;58.53;99183.44;6167952;28;20238;-59
2021/01/22 15:59:08;;;;;;;7.57;4.93;;;;;;;6.65;57.66;99184.84;6162669;28;20244;-61